createdAt,value
2023-02-09T00:00:17.541Z,100.00
2023-02-09T00:02:45.240Z,100.00
2023-02-09T00:05:12.141Z,100.00
2023-02-09T02:06:13.357Z,100.00
2023-02-09T02:08:45.555Z,100.00
2023-02-09T02:11:12.679Z,100.00
2023-02-09T02:13:39.305Z,100.00
2023-02-09T02:16:35.233Z,100.00
2023-02-09T02:19:08.991Z,100.00
2023-02-09T02:22:13.144Z,100.00
2023-02-09T02:25:13.025Z,100.00
2023-02-09T02:27:55.971Z,100.00
2023-02-09T02:30:43.536Z,100.00
2023-02-09T02:33:19.468Z,100.00
2023-02-09T02:36:01.106Z,100.00
2023-02-09T02:38:36.685Z,100.00
2023-02-09T02:41:52.132Z,100.00
2023-02-09T02:44:19.654Z,100.00
2023-02-09T02:46:51.822Z,100.00
2023-02-09T02:49:37.366Z,100.00
2023-02-09T02:52:08.221Z,100.00
2023-02-09T02:54:39.925Z,100.00
2023-02-09T02:57:14.059Z,100.00
2023-02-09T03:00:04.008Z,100.00
2023-02-09T03:02:35.000Z,100.00
2023-02-09T03:05:05.200Z,100.00
2023-02-09T03:07:32.938Z,100.00
2023-02-09T03:10:01.469Z,100.00
2023-02-09T03:13:08.562Z,100.00
2023-02-09T03:15:42.443Z,100.00
2023-02-09T03:18:21.414Z,100.00
2023-02-09T03:21:08.854Z,100.00
2023-02-09T03:23:41.993Z,100.00
2023-02-09T03:26:14.358Z,100.00
2023-02-09T03:28:44.468Z,100.00
2023-02-09T03:31:11.519Z,100.00
2023-02-09T03:33:39.471Z,100.00
2023-02-09T03:36:15.138Z,100.00
2023-02-09T03:38:41.971Z,100.00
2023-02-09T03:41:08.833Z,100.00
2023-02-09T03:43:54.025Z,100.00
2023-02-09T03:46:20.966Z,100.00
2023-02-09T03:48:47.935Z,100.00
2023-02-09T03:51:14.535Z,100.00
2023-02-09T03:53:41.110Z,100.00
2023-02-09T03:56:10.565Z,100.00
2023-02-09T03:58:37.269Z,100.00
2023-02-09T04:01:05.976Z,100.00
2023-02-09T04:03:32.704Z,100.00
2023-02-09T04:05:59.886Z,100.00
2023-02-09T04:08:29.707Z,100.00
2023-02-09T04:10:57.777Z,100.00
2023-02-09T04:13:24.829Z,100.00
2023-02-09T04:15:51.866Z,100.00
2023-02-09T04:18:18.897Z,100.00
2023-02-09T04:20:45.863Z,100.00
2023-02-09T04:23:12.919Z,100.00
2023-02-09T04:25:39.730Z,100.00
2023-02-09T04:28:07.284Z,100.00
2023-02-09T04:30:33.975Z,100.00
2023-02-09T04:33:00.643Z,100.00
2023-02-09T04:35:27.254Z,100.00
2023-02-09T04:37:53.884Z,100.00
2023-02-09T04:40:20.597Z,100.00
2023-02-09T04:42:48.045Z,100.00
2023-02-09T04:45:14.793Z,100.00
2023-02-09T04:47:41.370Z,100.00
2023-02-09T04:50:08.323Z,100.00
2023-02-09T04:52:34.936Z,100.00
2023-02-09T04:55:01.623Z,100.00
2023-02-09T04:57:46.876Z,100.00
2023-02-09T05:00:14.123Z,100.00
2023-02-09T05:02:40.738Z,100.00
2023-02-09T05:05:07.725Z,100.00
2023-02-09T05:07:34.399Z,100.00
2023-02-09T05:10:01.032Z,100.00
2023-02-09T05:12:27.719Z,100.00
2023-02-09T05:14:54.283Z,100.00
2023-02-09T05:17:21.226Z,100.00
2023-02-09T05:19:48.513Z,100.00
2023-02-09T05:22:15.619Z,100.00
2023-02-09T05:24:42.210Z,100.00
2023-02-09T05:27:08.877Z,100.00
2023-02-09T05:29:35.667Z,100.00
2023-02-09T05:32:02.407Z,100.00
2023-02-09T05:34:29.047Z,100.00
2023-02-09T05:36:55.646Z,100.00
2023-02-09T05:39:22.881Z,100.00
2023-02-09T05:42:08.035Z,100.00
2023-02-09T05:44:34.726Z,100.00
2023-02-09T05:47:01.339Z,100.00
2023-02-09T05:49:27.935Z,100.00
2023-02-09T05:51:54.527Z,100.00
2023-02-09T05:54:21.235Z,100.00
2023-02-09T05:56:48.077Z,100.00
2023-02-09T05:59:14.711Z,100.00
2023-02-09T06:01:41.385Z,100.00
2023-02-09T06:04:09.224Z,100.00
2023-02-09T06:06:36.329Z,100.00
2023-02-09T06:09:03.703Z,100.00
2023-02-09T06:11:30.343Z,100.00
2023-02-09T06:13:56.974Z,100.00
2023-02-09T06:16:23.850Z,100.00
2023-02-09T06:18:50.490Z,100.00
2023-02-09T06:21:17.357Z,100.00
2023-02-09T06:23:44.030Z,100.00
2023-02-09T06:26:13.165Z,100.00
2023-02-09T06:28:40.209Z,100.00
2023-02-09T06:31:07.534Z,100.00
2023-02-09T06:33:35.474Z,100.00
2023-02-09T06:36:03.253Z,100.00
2023-02-09T06:38:34.479Z,100.00
2023-02-09T06:41:01.161Z,100.00
2023-02-09T06:43:28.096Z,100.00
2023-02-09T06:45:54.793Z,100.00
2023-02-09T06:48:21.548Z,100.00
2023-02-09T06:50:48.403Z,100.00
2023-02-09T06:53:16.177Z,100.00
2023-02-09T06:55:42.834Z,100.00
2023-02-09T06:58:09.676Z,100.00
2023-02-09T07:00:36.360Z,100.00
2023-02-09T07:03:03.374Z,100.00
2023-02-09T07:05:31.531Z,100.00
2023-02-09T07:07:58.261Z,100.00
2023-02-09T07:10:25.212Z,100.00
2023-02-09T07:12:51.897Z,100.00
2023-02-09T07:15:18.722Z,100.00
2023-02-09T07:17:45.409Z,100.00
2023-02-09T07:20:12.571Z,100.00
2023-02-09T07:22:39.378Z,100.00
2023-02-09T07:25:06.587Z,100.00
2023-02-09T07:27:33.458Z,100.00
2023-02-09T07:30:01.155Z,100.00
2023-02-09T07:32:28.406Z,100.00
2023-02-09T07:34:55.042Z,100.00
2023-02-09T07:37:21.697Z,100.00
2023-02-09T07:39:48.604Z,100.00
2023-02-09T07:42:15.517Z,100.00
2023-02-09T07:44:51.568Z,100.00
2023-02-09T07:47:18.230Z,100.00
2023-02-09T07:49:44.862Z,100.00
2023-02-09T07:52:11.680Z,100.00
2023-02-09T07:54:38.294Z,100.00
2023-02-09T07:57:07.469Z,100.00
2023-02-09T07:59:34.111Z,100.00
2023-02-09T08:02:01.142Z,100.00
2023-02-09T08:04:27.820Z,100.00
2023-02-09T08:06:55.320Z,100.00
2023-02-09T08:09:21.922Z,100.00
2023-02-09T08:11:53.653Z,100.00
2023-02-09T08:14:30.774Z,100.00
2023-02-09T08:17:27.943Z,100.00
2023-02-09T08:20:00.730Z,100.00
2023-02-09T08:22:31.827Z,100.00
2023-02-09T08:25:01.703Z,100.00
2023-02-09T08:27:28.957Z,100.00
2023-02-09T08:29:55.852Z,100.00
2023-02-09T08:32:22.846Z,100.00
2023-02-09T08:34:49.524Z,100.00
2023-02-09T08:37:16.166Z,100.00
2023-02-09T08:39:44.671Z,100.00
2023-02-09T08:42:11.374Z,100.00
2023-02-09T08:44:37.998Z,100.00
2023-02-09T08:47:04.842Z,100.00
2023-02-09T08:49:31.569Z,100.00
2023-02-09T08:51:58.208Z,100.00
2023-02-09T08:54:25.474Z,100.00
2023-02-09T08:56:52.160Z,100.00
2023-02-09T08:59:20.150Z,100.00
2023-02-09T09:01:46.840Z,100.00
2023-02-09T09:04:13.587Z,100.00
2023-02-09T09:06:40.166Z,100.00
2023-02-09T09:09:06.824Z,100.00
2023-02-09T09:11:33.658Z,100.00
2023-02-09T09:14:00.267Z,100.00
2023-02-09T09:16:26.982Z,100.00
2023-02-09T09:18:53.599Z,100.00
2023-02-09T09:21:20.289Z,100.00
2023-02-09T09:23:48.078Z,100.00
2023-02-09T09:26:15.881Z,100.00
2023-02-09T09:28:43.184Z,100.00
2023-02-09T09:31:12.762Z,100.00
2023-02-09T09:33:39.521Z,100.00
2023-02-09T09:36:07.187Z,100.00
2023-02-09T09:38:38.034Z,100.00
2023-02-09T09:41:17.311Z,100.00
2023-02-09T09:43:44.097Z,100.00
2023-02-09T09:46:16.656Z,100.00
2023-02-09T09:48:47.119Z,100.00
2023-02-09T09:51:21.137Z,100.00
2023-02-09T09:53:53.124Z,100.00
2023-02-09T09:56:21.380Z,100.00
2023-02-09T09:58:49.852Z,100.00
2023-02-09T10:01:20.350Z,100.00
2023-02-09T10:03:47.382Z,100.00
2023-02-09T10:06:17.500Z,100.00
2023-02-09T10:08:51.711Z,100.00
2023-02-09T10:11:23.854Z,100.00
2023-02-09T10:13:55.561Z,100.00
2023-02-09T10:16:25.512Z,100.00
2023-02-09T10:18:59.928Z,100.00
2023-02-09T10:21:30.439Z,100.00
2023-02-09T10:24:00.136Z,100.00
2023-02-09T10:26:30.977Z,100.00
2023-02-09T10:29:07.115Z,100.00
2023-02-09T10:31:38.744Z,100.00
2023-02-09T10:34:08.518Z,100.00
2023-02-09T10:37:10.598Z,100.00
2023-02-09T10:39:37.319Z,100.00
2023-02-09T10:42:19.194Z,100.00
2023-02-09T10:44:50.414Z,100.00
2023-02-09T10:47:20.008Z,100.00
2023-02-09T10:50:13.577Z,100.00
2023-02-09T10:53:14.342Z,100.00
2023-02-09T10:55:43.030Z,100.00
2023-02-09T10:58:09.579Z,100.00
2023-02-09T11:00:42.201Z,100.00
2023-02-09T11:03:27.566Z,100.00
2023-02-09T11:05:58.814Z,100.00
2023-02-09T11:08:42.809Z,100.00
2023-02-09T11:11:22.639Z,100.00
2023-02-09T11:13:49.330Z,100.00
2023-02-09T11:16:15.882Z,100.00
2023-02-09T11:18:47.129Z,100.00
2023-02-09T11:21:40.211Z,100.00
2023-02-09T11:24:26.502Z,100.00
2023-02-09T11:27:17.916Z,100.00
2023-02-09T11:30:15.294Z,99.07
2023-02-09T11:33:02.789Z,100.00
2023-02-09T11:35:46.149Z,100.00
2023-02-09T11:38:17.482Z,99.57
2023-02-09T11:40:50.306Z,96.55
2023-02-09T11:43:32.287Z,97.79
2023-02-09T11:46:05.673Z,100.00
2023-02-09T11:48:38.095Z,96.78
2023-02-09T11:51:11.803Z,96.00
2023-02-09T11:53:55.515Z,94.26
2023-02-09T11:56:27.943Z,97.69
2023-02-09T11:58:57.507Z,96.72
2023-02-09T12:01:50.814Z,96.73
2023-02-09T12:04:41.789Z,98.48
2023-02-09T12:07:40.375Z,97.68
2023-02-09T12:10:09.939Z,95.23
2023-02-09T12:13:20.765Z,93.57
2023-02-09T12:15:58.954Z,92.35
2023-02-09T12:18:32.940Z,91.29
2023-02-09T12:21:05.304Z,91.91
2023-02-09T12:23:41.884Z,89.99
2023-02-09T12:26:11.517Z,90.38
2023-02-09T12:28:41.149Z,90.98
2023-02-09T12:31:15.885Z,91.81
2023-02-09T12:33:45.465Z,90.21
2023-02-09T12:36:16.100Z,89.67
2023-02-09T12:38:51.584Z,89.92
2023-02-09T12:41:32.093Z,89.32
2023-02-09T12:44:25.088Z,88.04
2023-02-09T12:46:55.575Z,87.74
2023-02-09T12:49:27.989Z,89.91
2023-02-09T12:52:00.763Z,90.97
2023-02-09T12:54:42.474Z,87.86
2023-02-09T12:57:15.357Z,83.53
2023-02-09T12:59:51.360Z,82.77
2023-02-09T13:02:29.792Z,81.33
2023-02-09T13:05:14.758Z,81.27
2023-02-09T13:08:04.048Z,81.59
2023-02-09T13:10:41.164Z,80.39
2023-02-09T13:13:10.797Z,79.66
2023-02-09T13:15:56.202Z,77.74
2023-02-09T13:18:59.961Z,78.05
2023-02-09T13:21:27.215Z,78.89
2023-02-09T13:23:57.006Z,77.60
2023-02-09T13:26:26.742Z,77.07
2023-02-09T13:29:21.724Z,76.16
2023-02-09T13:32:03.536Z,75.06
2023-02-09T13:34:48.541Z,75.75
2023-02-09T13:37:33.506Z,75.90
2023-02-09T13:40:03.293Z,73.09
2023-02-09T13:42:35.036Z,73.91
2023-02-09T13:45:02.002Z,73.39
2023-02-09T13:47:28.989Z,74.58
2023-02-09T13:50:13.685Z,73.47
2023-02-09T13:52:40.677Z,73.00
2023-02-09T13:55:19.939Z,72.44
2023-02-09T13:57:56.108Z,72.53
2023-02-09T14:00:25.652Z,70.66
2023-02-09T14:02:57.111Z,70.31
2023-02-09T14:05:37.392Z,69.09
2023-02-09T14:08:04.374Z,69.99
2023-02-09T14:10:33.716Z,70.25
2023-02-09T14:13:15.486Z,71.05
2023-02-09T14:16:06.268Z,69.56
2023-02-09T14:18:51.121Z,68.58
2023-02-09T14:21:21.540Z,68.06
2023-02-09T14:24:03.064Z,68.36
2023-02-09T14:26:42.524Z,67.43
2023-02-09T14:29:30.571Z,68.04
2023-02-09T14:32:06.914Z,67.60
2023-02-09T14:34:35.784Z,67.66
2023-02-09T14:37:13.365Z,68.69
2023-02-09T14:39:54.872Z,67.86
2023-02-09T14:42:22.155Z,68.14
2023-02-09T14:44:57.687Z,68.16
2023-02-09T14:47:40.360Z,68.17
2023-02-09T14:50:15.017Z,68.08
2023-02-09T14:52:46.793Z,68.88
2023-02-09T14:55:40.591Z,67.95
2023-02-09T14:58:12.259Z,66.42
2023-02-09T15:00:38.861Z,67.51
2023-02-09T15:03:05.599Z,66.50
2023-02-09T15:05:32.396Z,67.60
2023-02-09T15:08:03.596Z,69.36
2023-02-09T15:10:35.229Z,69.26
2023-02-09T15:13:03.077Z,70.20
2023-02-09T15:15:29.781Z,70.13
2023-02-09T15:17:58.593Z,69.13
2023-02-09T15:20:25.762Z,69.96
2023-02-09T15:22:53.861Z,69.44
2023-02-09T15:25:21.257Z,69.65
2023-02-09T15:27:52.844Z,70.77
2023-02-09T15:30:26.376Z,69.29
2023-02-09T15:32:53.646Z,69.12
2023-02-09T15:35:23.614Z,69.53
2023-02-09T15:37:56.638Z,71.41
2023-02-09T15:40:45.716Z,72.34
2023-02-09T15:43:36.358Z,72.75
2023-02-09T15:46:21.556Z,74.20
2023-02-09T15:48:48.166Z,76.10
2023-02-09T15:51:15.498Z,76.92
2023-02-09T15:53:42.994Z,78.33
2023-02-09T15:56:11.593Z,80.66
2023-02-09T15:58:44.946Z,82.40
2023-02-09T16:01:16.723Z,84.71
2023-02-09T16:03:44.201Z,88.12
2023-02-09T16:06:13.128Z,88.59
2023-02-09T16:08:39.904Z,90.21
2023-02-09T16:11:17.145Z,90.77
2023-02-09T16:13:43.824Z,92.97
2023-02-09T16:16:16.997Z,94.44
2023-02-09T16:18:45.286Z,98.21
2023-02-09T16:21:24.065Z,100.00
2023-02-09T16:23:53.845Z,100.00
2023-02-09T16:26:21.027Z,100.00
2023-02-09T16:28:47.676Z,100.00
2023-02-09T16:31:14.340Z,100.00
2023-02-09T16:33:43.155Z,100.00
2023-02-09T16:36:16.840Z,100.00
2023-02-09T16:38:43.669Z,100.00
2023-02-09T16:41:34.364Z,100.00
2023-02-09T16:44:04.726Z,100.00
2023-02-09T16:46:31.886Z,100.00
2023-02-09T16:49:00.894Z,100.00
2023-02-09T16:51:27.627Z,100.00
2023-02-09T16:53:54.903Z,100.00
2023-02-09T16:56:21.633Z,100.00
2023-02-09T16:58:48.729Z,100.00
2023-02-09T17:01:21.703Z,100.00
2023-02-09T17:03:50.998Z,100.00
2023-02-09T17:06:20.665Z,100.00
2023-02-09T17:08:48.278Z,100.00
2023-02-09T17:11:21.357Z,100.00
2023-02-09T17:13:47.990Z,100.00
2023-02-09T17:16:22.224Z,100.00
2023-02-09T17:18:55.148Z,100.00
2023-02-09T17:21:24.813Z,100.00
2023-02-09T17:23:52.353Z,100.00
2023-02-09T17:26:19.238Z,100.00
2023-02-09T17:28:45.838Z,100.00
2023-02-09T17:31:26.414Z,100.00
2023-02-09T17:33:56.704Z,100.00
2023-02-09T17:36:27.381Z,100.00
2023-02-09T17:38:57.134Z,100.00
2023-02-09T17:41:23.654Z,100.00
2023-02-09T17:43:52.656Z,100.00
2023-02-09T17:46:20.164Z,100.00
2023-02-09T17:48:47.915Z,100.00
2023-02-09T17:51:20.743Z,100.00
2023-02-09T17:53:48.860Z,100.00
2023-02-09T17:56:16.825Z,100.00
2023-02-09T17:58:44.562Z,100.00
2023-02-09T18:01:22.119Z,100.00
2023-02-09T18:03:49.896Z,100.00
2023-02-09T18:06:20.910Z,100.00
2023-02-09T18:08:47.497Z,100.00
2023-02-09T18:11:16.031Z,100.00
2023-02-09T18:13:42.640Z,100.00
2023-02-09T18:16:09.745Z,100.00
2023-02-09T18:18:36.381Z,100.00
2023-02-09T18:21:03.079Z,100.00
2023-02-09T18:23:29.756Z,100.00
2023-02-09T18:25:56.379Z,100.00
2023-02-09T18:28:23.170Z,100.00
2023-02-09T18:30:50.051Z,100.00
2023-02-09T18:33:16.799Z,100.00
2023-02-09T18:35:46.993Z,100.00
2023-02-09T18:38:14.822Z,100.00
2023-02-09T18:40:41.676Z,100.00
2023-02-09T18:43:08.632Z,100.00
2023-02-09T18:45:35.371Z,100.00
2023-02-09T18:48:02.180Z,100.00
2023-02-09T18:50:31.121Z,100.00
2023-02-09T18:53:02.842Z,100.00
2023-02-09T18:55:31.937Z,100.00
2023-02-09T18:58:00.327Z,100.00
2023-02-09T19:00:27.420Z,100.00
2023-02-09T19:02:57.841Z,100.00
2023-02-09T19:05:32.837Z,100.00
2023-02-09T19:07:59.753Z,100.00
2023-02-09T19:10:27.366Z,100.00
2023-02-09T19:12:54.354Z,100.00
2023-02-09T19:15:22.563Z,100.00
2023-02-09T19:17:49.242Z,100.00
2023-02-09T19:20:21.912Z,100.00
2023-02-09T19:22:51.517Z,100.00
2023-02-09T19:25:19.459Z,100.00
2023-02-09T19:27:46.197Z,100.00
2023-02-09T19:30:16.108Z,100.00
2023-02-09T19:32:43.000Z,100.00
2023-02-09T19:35:09.735Z,100.00
2023-02-09T19:37:37.439Z,100.00
2023-02-09T19:40:05.173Z,100.00
2023-02-09T19:42:32.657Z,100.00
2023-02-09T19:44:59.614Z,100.00
2023-02-09T19:47:27.351Z,100.00
2023-02-09T19:49:58.341Z,100.00
2023-02-09T19:52:28.099Z,100.00
2023-02-09T19:54:57.294Z,100.00
2023-02-09T19:57:24.345Z,100.00
2023-02-09T19:59:53.468Z,100.00
2023-02-09T20:02:20.111Z,100.00
2023-02-09T20:04:46.753Z,100.00
2023-02-09T20:07:14.367Z,100.00
2023-02-09T20:09:41.606Z,100.00
2023-02-09T20:12:08.256Z,100.00
2023-02-09T20:14:35.093Z,100.00
2023-02-09T20:17:01.732Z,100.00
2023-02-09T20:19:28.427Z,100.00
2023-02-09T20:21:55.061Z,100.00
2023-02-09T20:24:22.494Z,100.00
2023-02-09T20:26:49.218Z,100.00
2023-02-09T20:29:16.798Z,100.00
2023-02-09T20:31:43.630Z,100.00
2023-02-09T20:34:13.698Z,100.00
2023-02-09T20:36:41.786Z,100.00
2023-02-09T20:39:13.228Z,100.00
2023-02-09T20:41:59.887Z,100.00
2023-02-09T20:44:45.129Z,100.00
2023-02-09T20:47:11.747Z,100.00
2023-02-09T20:49:40.650Z,100.00
2023-02-09T20:52:08.889Z,100.00
2023-02-09T20:54:36.336Z,100.00
2023-02-09T20:57:03.930Z,100.00
2023-02-09T20:59:31.108Z,100.00
2023-02-09T21:01:58.530Z,100.00
2023-02-09T21:04:30.103Z,100.00
2023-02-09T21:06:58.697Z,100.00
2023-02-09T21:09:26.588Z,100.00
2023-02-09T21:11:56.009Z,100.00
2023-02-09T21:14:27.925Z,100.00
2023-02-09T21:17:05.941Z,100.00
2023-02-09T21:19:34.669Z,100.00
2023-02-09T21:22:01.611Z,100.00
2023-02-09T21:24:28.253Z,100.00
2023-02-09T21:26:54.905Z,100.00
2023-02-09T21:29:21.614Z,100.00
2023-02-09T21:31:48.328Z,100.00
2023-02-09T21:34:16.156Z,100.00
2023-02-09T21:36:43.545Z,100.00
2023-02-09T21:39:10.192Z,100.00
2023-02-09T21:41:55.617Z,100.00
2023-02-09T21:44:22.326Z,100.00
2023-02-09T21:46:50.022Z,100.00
2023-02-09T21:49:16.835Z,100.00
2023-02-09T21:51:43.485Z,100.00
2023-02-09T21:54:17.578Z,100.00
2023-02-09T21:56:45.149Z,100.00
2023-02-09T21:59:12.012Z,100.00
2023-02-09T22:01:39.491Z,100.00
2023-02-09T22:04:06.388Z,100.00
2023-02-09T22:06:33.077Z,100.00
2023-02-09T22:09:02.775Z,100.00
2023-02-09T22:11:29.941Z,100.00
2023-02-09T22:13:56.567Z,100.00
2023-02-09T22:16:24.369Z,100.00
2023-02-09T22:18:51.413Z,100.00
2023-02-09T22:21:18.588Z,100.00
2023-02-09T22:23:45.637Z,100.00
2023-02-09T22:26:13.894Z,100.00
2023-02-09T22:28:41.694Z,100.00
2023-02-09T22:31:15.918Z,100.00
2023-02-09T22:33:42.770Z,100.00
2023-02-09T22:36:12.837Z,100.00
2023-02-09T22:38:39.642Z,100.00
2023-02-09T22:41:08.031Z,100.00
2023-02-09T22:43:34.999Z,100.00
2023-02-09T22:46:01.697Z,100.00
2023-02-09T22:48:28.440Z,100.00
2023-02-09T22:50:55.197Z,100.00
2023-02-09T22:53:21.803Z,100.00
2023-02-09T22:55:49.437Z,100.00
2023-02-09T22:58:16.268Z,100.00
2023-02-09T23:00:43.031Z,100.00
2023-02-09T23:03:09.767Z,100.00
2023-02-09T23:05:36.441Z,100.00
2023-02-09T23:08:03.104Z,100.00
2023-02-09T23:10:30.642Z,100.00
2023-02-09T23:12:57.270Z,100.00
2023-02-09T23:15:23.934Z,100.00
2023-02-09T23:17:50.727Z,100.00
2023-02-09T23:20:17.761Z,100.00
2023-02-09T23:22:44.594Z,100.00
2023-02-09T23:25:11.194Z,100.00
2023-02-09T23:27:37.768Z,100.00
2023-02-09T23:30:04.755Z,100.00
2023-02-09T23:32:31.321Z,100.00
2023-02-09T23:37:37.511Z,100.00
2023-02-09T23:40:04.850Z,100.00
2023-02-09T23:42:31.519Z,100.00
2023-02-09T23:44:58.304Z,100.00
2023-02-09T23:47:24.953Z,100.00
2023-02-09T23:49:51.512Z,100.00
2023-02-09T23:52:18.243Z,100.00
2023-02-09T23:54:44.799Z,100.00
2023-02-09T23:57:11.472Z,100.00
2023-02-09T23:59:38.731Z,100.00
